sensor_id;sensor_type;location;lat;lon;timestamp;temperature;humidity
24800;DHT22;12897;50.812;4.430;2023-05-28T00:00:41;14.00;99.90
24800;DHT22;12897;50.812;4.430;2023-05-28T00:03:12;14.00;99.90
24800;DHT22;12897;50.812;4.430;2023-05-28T00:05:42;13.90;99.90
24800;DHT22;12897;50.812;4.430;2023-05-28T00:08:09;13.80;99.90
24800;DHT22;12897;50.812;4.430;2023-05-28T00:10:37;13.70;99.90
24800;DHT22;12897;50.812;4.430;2023-05-28T00:13:04;13.70;99.90
24800;DHT22;12897;50.812;4.430;2023-05-28T00:15:32;13.70;99.90
24800;DHT22;12897;50.812;4.430;2023-05-28T00:17:59;13.70;99.90
24800;DHT22;12897;50.812;4.430;2023-05-28T00:20:27;13.60;99.90
24800;DHT22;12897;50.812;4.430;2023-05-28T00:22:55;13.70;99.90
24800;DHT22;12897;50.812;4.430;2023-05-28T00:25:23;13.70;99.90
24800;DHT22;12897;50.812;4.430;2023-05-28T00:27:51;13.70;99.90
24800;DHT22;12897;50.812;4.430;2023-05-28T00:30:18;13.60;99.90
24800;DHT22;12897;50.812;4.430;2023-05-28T00:32:46;13.60;99.90
24800;DHT22;12897;50.812;4.430;2023-05-28T00:35:14;13.60;99.90
24800;DHT22;12897;50.812;4.430;2023-05-28T00:37:41;13.50;99.90
24800;DHT22;12897;50.812;4.430;2023-05-28T00:40:09;13.40;99.90
24800;DHT22;12897;50.812;4.430;2023-05-28T00:42:36;13.40;99.90
24800;DHT22;12897;50.812;4.430;2023-05-28T00:45:05;13.50;99.90
24800;DHT22;12897;50.812;4.430;2023-05-28T00:47:32;13.50;99.90
24800;DHT22;12897;50.812;4.430;2023-05-28T00:50:01;13.50;99.90
24800;DHT22;12897;50.812;4.430;2023-05-28T00:52:30;13.50;99.90
24800;DHT22;12897;50.812;4.430;2023-05-28T00:54:58;13.50;99.90
24800;DHT22;12897;50.812;4.430;2023-05-28T00:57:26;13.50;99.90
24800;DHT22;12897;50.812;4.430;2023-05-28T00:59:54;13.50;99.90
24800;DHT22;12897;50.812;4.430;2023-05-28T01:02:26;13.50;99.90
24800;DHT22;12897;50.812;4.430;2023-05-28T01:04:53;13.40;99.90
24800;DHT22;12897;50.812;4.430;2023-05-28T01:07:21;13.30;99.90
24800;DHT22;12897;50.812;4.430;2023-05-28T01:09:48;13.20;99.90
24800;DHT22;12897;50.812;4.430;2023-05-28T01:12:16;13.20;99.90
24800;DHT22;12897;50.812;4.430;2023-05-28T01:14:45;13.10;99.90
24800;DHT22;12897;50.812;4.430;2023-05-28T01:17:13;13.10;99.90
24800;DHT22;12897;50.812;4.430;2023-05-28T01:19:41;13.10;99.90
24800;DHT22;12897;50.812;4.430;2023-05-28T01:22:11;13.00;99.90
24800;DHT22;12897;50.812;4.430;2023-05-28T01:24:42;12.90;99.90
24800;DHT22;12897;50.812;4.430;2023-05-28T01:27:12;12.90;99.90
24800;DHT22;12897;50.812;4.430;2023-05-28T01:29:40;12.90;99.90
24800;DHT22;12897;50.812;4.430;2023-05-28T01:32:08;12.80;99.90
24800;DHT22;12897;50.812;4.430;2023-05-28T01:34:36;12.80;99.90
24800;DHT22;12897;50.812;4.430;2023-05-28T01:37:09;12.80;99.90
24800;DHT22;12897;50.812;4.430;2023-05-28T01:39:44;12.80;99.90
24800;DHT22;12897;50.812;4.430;2023-05-28T01:42:09;12.80;99.90
24800;DHT22;12897;50.812;4.430;2023-05-28T01:44:39;12.80;99.90
24800;DHT22;12897;50.812;4.430;2023-05-28T01:47:09;13.00;99.90
24800;DHT22;12897;50.812;4.430;2023-05-28T01:49:38;12.90;99.90
24800;DHT22;12897;50.812;4.430;2023-05-28T01:52:06;13.00;99.90
24800;DHT22;12897;50.812;4.430;2023-05-28T01:54:34;13.10;99.90
24800;DHT22;12897;50.812;4.430;2023-05-28T01:57:08;13.00;99.90
24800;DHT22;12897;50.812;4.430;2023-05-28T01:59:36;12.90;99.90
24800;DHT22;12897;50.812;4.430;2023-05-28T02:02:04;13.00;99.90
24800;DHT22;12897;50.812;4.430;2023-05-28T02:04:32;13.10;99.90
24800;DHT22;12897;50.812;4.430;2023-05-28T02:06:59;13.10;99.90
24800;DHT22;12897;50.812;4.430;2023-05-28T02:09:27;13.10;99.90
24800;DHT22;12897;50.812;4.430;2023-05-28T02:11:54;13.00;99.90
24800;DHT22;12897;50.812;4.430;2023-05-28T02:14:23;12.90;99.90
24800;DHT22;12897;50.812;4.430;2023-05-28T02:16:50;13.00;99.90
24800;DHT22;12897;50.812;4.430;2023-05-28T02:19:21;13.00;99.90
24800;DHT22;12897;50.812;4.430;2023-05-28T02:21:50;13.00;99.90
24800;DHT22;12897;50.812;4.430;2023-05-28T02:24:19;13.10;99.90
24800;DHT22;12897;50.812;4.430;2023-05-28T02:26:46;13.00;99.90
24800;DHT22;12897;50.812;4.430;2023-05-28T02:29:16;13.00;99.90
24800;DHT22;12897;50.812;4.430;2023-05-28T02:31:44;13.00;99.90
24800;DHT22;12897;50.812;4.430;2023-05-28T02:34:11;12.90;99.90
24800;DHT22;12897;50.812;4.430;2023-05-28T02:36:39;12.90;99.90
24800;DHT22;12897;50.812;4.430;2023-05-28T02:39:07;13.00;99.90
24800;DHT22;12897;50.812;4.430;2023-05-28T02:41:36;13.00;99.90
24800;DHT22;12897;50.812;4.430;2023-05-28T02:44:03;12.90;99.90
24800;DHT22;12897;50.812;4.430;2023-05-28T02:46:31;12.90;99.90
24800;DHT22;12897;50.812;4.430;2023-05-28T02:48:58;13.00;99.90
24800;DHT22;12897;50.812;4.430;2023-05-28T02:51:26;13.00;99.90
24800;DHT22;12897;50.812;4.430;2023-05-28T02:53:53;13.00;99.90
24800;DHT22;12897;50.812;4.430;2023-05-28T02:56:21;13.00;99.90
24800;DHT22;12897;50.812;4.430;2023-05-28T02:58:49;12.90;99.90
24800;DHT22;12897;50.812;4.430;2023-05-28T03:01:16;12.90;99.90
24800;DHT22;12897;50.812;4.430;2023-05-28T03:03:44;12.90;99.90
24800;DHT22;12897;50.812;4.430;2023-05-28T03:06:11;13.00;99.90
24800;DHT22;12897;50.812;4.430;2023-05-28T03:08:42;12.90;99.90
24800;DHT22;12897;50.812;4.430;2023-05-28T03:11:10;12.80;99.90
24800;DHT22;12897;50.812;4.430;2023-05-28T03:13:39;12.80;99.90
24800;DHT22;12897;50.812;4.430;2023-05-28T03:16:07;12.90;99.90
24800;DHT22;12897;50.812;4.430;2023-05-28T03:18:35;12.70;99.90
24800;DHT22;12897;50.812;4.430;2023-05-28T03:21:02;12.70;99.90
24800;DHT22;12897;50.812;4.430;2023-05-28T03:23:30;12.70;99.90
24800;DHT22;12897;50.812;4.430;2023-05-28T03:25:57;12.70;99.90
24800;DHT22;12897;50.812;4.430;2023-05-28T03:28:25;12.60;99.90
24800;DHT22;12897;50.812;4.430;2023-05-28T03:30:54;12.60;99.90
24800;DHT22;12897;50.812;4.430;2023-05-28T03:33:24;12.50;99.90
24800;DHT22;12897;50.812;4.430;2023-05-28T03:35:51;12.40;99.90
24800;DHT22;12897;50.812;4.430;2023-05-28T03:38:19;12.40;99.90
24800;DHT22;12897;50.812;4.430;2023-05-28T03:40:46;12.40;99.90
24800;DHT22;12897;50.812;4.430;2023-05-28T03:43:14;12.50;99.90
24800;DHT22;12897;50.812;4.430;2023-05-28T03:45:41;12.50;99.90
24800;DHT22;12897;50.812;4.430;2023-05-28T03:48:09;12.50;99.90
24800;DHT22;12897;50.812;4.430;2023-05-28T03:50:37;12.50;99.90
24800;DHT22;12897;50.812;4.430;2023-05-28T03:53:05;12.40;99.90
24800;DHT22;12897;50.812;4.430;2023-05-28T03:55:34;12.40;99.90
24800;DHT22;12897;50.812;4.430;2023-05-28T03:58:02;12.30;99.90
24800;DHT22;12897;50.812;4.430;2023-05-28T04:00:30;12.50;99.90
24800;DHT22;12897;50.812;4.430;2023-05-28T04:02:58;12.50;99.90
24800;DHT22;12897;50.812;4.430;2023-05-28T04:05:25;12.50;99.90
24800;DHT22;12897;50.812;4.430;2023-05-28T04:07:53;12.60;99.90
24800;DHT22;12897;50.812;4.430;2023-05-28T04:10:20;12.60;99.90
24800;DHT22;12897;50.812;4.430;2023-05-28T04:12:48;12.50;99.90
24800;DHT22;12897;50.812;4.430;2023-05-28T04:15:16;12.40;99.90
24800;DHT22;12897;50.812;4.430;2023-05-28T04:17:44;12.30;99.90
24800;DHT22;12897;50.812;4.430;2023-05-28T04:20:12;12.30;99.90
24800;DHT22;12897;50.812;4.430;2023-05-28T04:22:40;12.40;99.90
24800;DHT22;12897;50.812;4.430;2023-05-28T04:25:07;12.30;99.90
24800;DHT22;12897;50.812;4.430;2023-05-28T04:27:35;12.40;99.90
24800;DHT22;12897;50.812;4.430;2023-05-28T04:30:03;12.50;99.90
24800;DHT22;12897;50.812;4.430;2023-05-28T04:32:30;12.50;99.90
24800;DHT22;12897;50.812;4.430;2023-05-28T04:34:58;12.60;99.90
24800;DHT22;12897;50.812;4.430;2023-05-28T04:37:28;12.60;99.90
24800;DHT22;12897;50.812;4.430;2023-05-28T04:39:56;12.60;99.90
24800;DHT22;12897;50.812;4.430;2023-05-28T04:42:25;12.70;99.90
24800;DHT22;12897;50.812;4.430;2023-05-28T04:44:54;12.80;99.90
24800;DHT22;12897;50.812;4.430;2023-05-28T04:47:21;12.80;99.90
24800;DHT22;12897;50.812;4.430;2023-05-28T04:49:49;12.90;99.90
24800;DHT22;12897;50.812;4.430;2023-05-28T04:52:17;13.00;99.90
24800;DHT22;12897;50.812;4.430;2023-05-28T04:54:45;13.10;99.90
24800;DHT22;12897;50.812;4.430;2023-05-28T04:57:13;13.30;99.90
24800;DHT22;12897;50.812;4.430;2023-05-28T04:59:41;13.40;99.90
24800;DHT22;12897;50.812;4.430;2023-05-28T05:02:11;13.50;99.90
24800;DHT22;12897;50.812;4.430;2023-05-28T05:04:49;13.60;99.90
24800;DHT22;12897;50.812;4.430;2023-05-28T05:07:17;13.70;99.90
24800;DHT22;12897;50.812;4.430;2023-05-28T05:09:44;13.80;99.90
24800;DHT22;12897;50.812;4.430;2023-05-28T05:12:12;13.90;99.90
24800;DHT22;12897;50.812;4.430;2023-05-28T05:14:39;14.00;99.90
24800;DHT22;12897;50.812;4.430;2023-05-28T05:17:07;14.10;99.90
24800;DHT22;12897;50.812;4.430;2023-05-28T05:19:35;14.40;99.90
24800;DHT22;12897;50.812;4.430;2023-05-28T05:22:04;15.10;99.90
24800;DHT22;12897;50.812;4.430;2023-05-28T05:24:31;15.90;99.90
24800;DHT22;12897;50.812;4.430;2023-05-28T05:26:59;16.80;99.90
24800;DHT22;12897;50.812;4.430;2023-05-28T05:29:30;17.70;99.90
24800;DHT22;12897;50.812;4.430;2023-05-28T05:31:58;18.30;99.90
24800;DHT22;12897;50.812;4.430;2023-05-28T05:34:25;19.20;99.90
24800;DHT22;12897;50.812;4.430;2023-05-28T05:36:53;19.90;99.90
24800;DHT22;12897;50.812;4.430;2023-05-28T05:39:21;20.10;99.90
24800;DHT22;12897;50.812;4.430;2023-05-28T05:41:49;19.80;99.90
24800;DHT22;12897;50.812;4.430;2023-05-28T05:44:16;19.60;99.90
24800;DHT22;12897;50.812;4.430;2023-05-28T05:46:45;19.70;99.90
24800;DHT22;12897;50.812;4.430;2023-05-28T05:49:13;20.00;99.90
24800;DHT22;12897;50.812;4.430;2023-05-28T05:51:41;20.20;99.90
24800;DHT22;12897;50.812;4.430;2023-05-28T05:54:09;20.40;99.90
24800;DHT22;12897;50.812;4.430;2023-05-28T05:56:37;20.10;99.90
24800;DHT22;12897;50.812;4.430;2023-05-28T05:59:05;20.30;99.90
24800;DHT22;12897;50.812;4.430;2023-05-28T06:01:34;20.10;99.90
24800;DHT22;12897;50.812;4.430;2023-05-28T06:04:02;19.80;99.90
24800;DHT22;12897;50.812;4.430;2023-05-28T06:06:30;19.70;99.90
24800;DHT22;12897;50.812;4.430;2023-05-28T06:08:57;19.70;99.90
24800;DHT22;12897;50.812;4.430;2023-05-28T06:11:25;19.80;99.90
24800;DHT22;12897;50.812;4.430;2023-05-28T06:13:52;20.20;99.90
24800;DHT22;12897;50.812;4.430;2023-05-28T06:16:20;20.30;99.90
24800;DHT22;12897;50.812;4.430;2023-05-28T06:18:48;20.30;99.90
24800;DHT22;12897;50.812;4.430;2023-05-28T06:21:15;20.10;99.90
24800;DHT22;12897;50.812;4.430;2023-05-28T06:23:43;20.00;99.90
24800;DHT22;12897;50.812;4.430;2023-05-28T06:26:10;19.80;99.90
24800;DHT22;12897;50.812;4.430;2023-05-28T06:28:39;19.70;99.90
24800;DHT22;12897;50.812;4.430;2023-05-28T06:31:07;20.00;99.90
24800;DHT22;12897;50.812;4.430;2023-05-28T06:33:34;20.20;99.90
24800;DHT22;12897;50.812;4.430;2023-05-28T06:36:02;19.80;99.90
24800;DHT22;12897;50.812;4.430;2023-05-28T06:38:30;19.90;99.90
24800;DHT22;12897;50.812;4.430;2023-05-28T06:40:57;19.80;99.90
24800;DHT22;12897;50.812;4.430;2023-05-28T06:43:25;19.90;99.90
24800;DHT22;12897;50.812;4.430;2023-05-28T06:45:53;19.70;99.90
24800;DHT22;12897;50.812;4.430;2023-05-28T06:48:21;19.70;99.90
24800;DHT22;12897;50.812;4.430;2023-05-28T06:50:49;19.80;99.90
24800;DHT22;12897;50.812;4.430;2023-05-28T06:53:16;20.20;99.90
24800;DHT22;12897;50.812;4.430;2023-05-28T06:55:45;20.30;99.90
24800;DHT22;12897;50.812;4.430;2023-05-28T06:58:13;20.10;99.90
24800;DHT22;12897;50.812;4.430;2023-05-28T07:00:41;20.10;99.90
24800;DHT22;12897;50.812;4.430;2023-05-28T07:03:09;19.90;99.90
24800;DHT22;12897;50.812;4.430;2023-05-28T07:05:37;19.80;99.90
24800;DHT22;12897;50.812;4.430;2023-05-28T07:08:05;19.70;99.90
24800;DHT22;12897;50.812;4.430;2023-05-28T07:10:32;19.80;99.90
24800;DHT22;12897;50.812;4.430;2023-05-28T07:13:00;19.70;99.90
24800;DHT22;12897;50.812;4.430;2023-05-28T07:15:28;19.60;99.90
24800;DHT22;12897;50.812;4.430;2023-05-28T07:17:55;19.30;99.90
24800;DHT22;12897;50.812;4.430;2023-05-28T07:20:23;19.10;99.90
24800;DHT22;12897;50.812;4.430;2023-05-28T07:22:51;19.10;99.90
24800;DHT22;12897;50.812;4.430;2023-05-28T07:25:18;19.20;99.90
24800;DHT22;12897;50.812;4.430;2023-05-28T07:27:46;19.30;99.90
24800;DHT22;12897;50.812;4.430;2023-05-28T07:30:13;19.10;99.90
24800;DHT22;12897;50.812;4.430;2023-05-28T07:32:42;19.20;99.90
24800;DHT22;12897;50.812;4.430;2023-05-28T07:35:10;19.50;99.90
24800;DHT22;12897;50.812;4.430;2023-05-28T07:37:38;19.40;99.90
24800;DHT22;12897;50.812;4.430;2023-05-28T07:40:06;19.50;99.90
24800;DHT22;12897;50.812;4.430;2023-05-28T07:42:35;19.20;99.90
24800;DHT22;12897;50.812;4.430;2023-05-28T07:45:02;19.10;99.90
24800;DHT22;12897;50.812;4.430;2023-05-28T07:47:30;19.30;99.90
24800;DHT22;12897;50.812;4.430;2023-05-28T07:49:57;19.40;99.90
24800;DHT22;12897;50.812;4.430;2023-05-28T07:52:25;19.10;99.90
24800;DHT22;12897;50.812;4.430;2023-05-28T07:54:55;19.00;99.90
24800;DHT22;12897;50.812;4.430;2023-05-28T07:57:24;18.90;99.90
24800;DHT22;12897;50.812;4.430;2023-05-28T07:59:51;18.80;99.90
24800;DHT22;12897;50.812;4.430;2023-05-28T08:02:19;18.90;99.90
24800;DHT22;12897;50.812;4.430;2023-05-28T08:04:48;19.00;99.90
24800;DHT22;12897;50.812;4.430;2023-05-28T08:07:16;19.40;99.90
24800;DHT22;12897;50.812;4.430;2023-05-28T08:09:43;19.60;99.90
24800;DHT22;12897;50.812;4.430;2023-05-28T08:12:11;19.70;99.90
24800;DHT22;12897;50.812;4.430;2023-05-28T08:14:38;20.00;99.90
24800;DHT22;12897;50.812;4.430;2023-05-28T08:17:06;20.20;99.90
24800;DHT22;12897;50.812;4.430;2023-05-28T08:19:33;20.10;99.90
24800;DHT22;12897;50.812;4.430;2023-05-28T08:22:01;19.90;99.90
24800;DHT22;12897;50.812;4.430;2023-05-28T08:24:29;19.60;99.90
24800;DHT22;12897;50.812;4.430;2023-05-28T08:26:57;19.60;99.90
24800;DHT22;12897;50.812;4.430;2023-05-28T08:29:25;19.60;99.90
24800;DHT22;12897;50.812;4.430;2023-05-28T08:31:53;19.50;99.90
24800;DHT22;12897;50.812;4.430;2023-05-28T08:34:20;19.50;99.90
24800;DHT22;12897;50.812;4.430;2023-05-28T08:36:49;19.70;99.90
24800;DHT22;12897;50.812;4.430;2023-05-28T08:39:16;19.80;99.90
24800;DHT22;12897;50.812;4.430;2023-05-28T08:41:44;20.10;99.90
24800;DHT22;12897;50.812;4.430;2023-05-28T08:44:12;19.90;99.90
24800;DHT22;12897;50.812;4.430;2023-05-28T08:46:42;20.10;99.90
24800;DHT22;12897;50.812;4.430;2023-05-28T08:49:11;20.20;99.90
24800;DHT22;12897;50.812;4.430;2023-05-28T08:51:40;20.30;99.90
24800;DHT22;12897;50.812;4.430;2023-05-28T08:54:09;20.40;99.90
24800;DHT22;12897;50.812;4.430;2023-05-28T08:56:39;20.40;99.90
24800;DHT22;12897;50.812;4.430;2023-05-28T08:59:09;20.30;99.90
24800;DHT22;12897;50.812;4.430;2023-05-28T09:01:40;20.30;99.90
24800;DHT22;12897;50.812;4.430;2023-05-28T09:04:07;19.80;99.90
24800;DHT22;12897;50.812;4.430;2023-05-28T09:06:38;19.80;99.90
24800;DHT22;12897;50.812;4.430;2023-05-28T09:09:07;19.80;99.90
24800;DHT22;12897;50.812;4.430;2023-05-28T09:11:35;19.80;99.90
24800;DHT22;12897;50.812;4.430;2023-05-28T09:14:11;19.90;99.90
24800;DHT22;12897;50.812;4.430;2023-05-28T09:16:43;20.10;99.90
24800;DHT22;12897;50.812;4.430;2023-05-28T09:19:16;20.20;99.90
24800;DHT22;12897;50.812;4.430;2023-05-28T09:21:54;20.30;99.90
24800;DHT22;12897;50.812;4.430;2023-05-28T09:24:23;20.50;99.90
24800;DHT22;12897;50.812;4.430;2023-05-28T09:26:55;20.60;99.90
24800;DHT22;12897;50.812;4.430;2023-05-28T09:29:23;20.60;99.90
24800;DHT22;12897;50.812;4.430;2023-05-28T09:31:59;20.70;99.90
24800;DHT22;12897;50.812;4.430;2023-05-28T09:34:30;20.70;99.90
24800;DHT22;12897;50.812;4.430;2023-05-28T09:37:04;20.70;99.90
24800;DHT22;12897;50.812;4.430;2023-05-28T09:39:32;20.90;99.90
24800;DHT22;12897;50.812;4.430;2023-05-28T09:42:01;21.10;99.90
24800;DHT22;12897;50.812;4.430;2023-05-28T09:44:39;21.00;99.90
24800;DHT22;12897;50.812;4.430;2023-05-28T09:47:16;21.00;99.90
24800;DHT22;12897;50.812;4.430;2023-05-28T09:49:45;21.10;99.90
24800;DHT22;12897;50.812;4.430;2023-05-28T09:52:21;21.10;99.90
24800;DHT22;12897;50.812;4.430;2023-05-28T09:54:54;21.00;99.90
24800;DHT22;12897;50.812;4.430;2023-05-28T09:57:31;20.90;99.90
24800;DHT22;12897;50.812;4.430;2023-05-28T09:59:56;20.90;99.90
24800;DHT22;12897;50.812;4.430;2023-05-28T10:02:46;20.90;99.90
24800;DHT22;12897;50.812;4.430;2023-05-28T10:05:14;20.90;99.90
24800;DHT22;12897;50.812;4.430;2023-05-28T10:07:45;20.80;99.90
24800;DHT22;12897;50.812;4.430;2023-05-28T10:10:14;20.90;99.90
24800;DHT22;12897;50.812;4.430;2023-05-28T10:12:42;21.00;99.90
24800;DHT22;12897;50.812;4.430;2023-05-28T10:15:11;21.00;99.90
24800;DHT22;12897;50.812;4.430;2023-05-28T10:17:39;21.20;99.90
24800;DHT22;12897;50.812;4.430;2023-05-28T10:20:09;21.00;99.90
24800;DHT22;12897;50.812;4.430;2023-05-28T10:22:39;21.00;99.90
24800;DHT22;12897;50.812;4.430;2023-05-28T10:25:07;20.90;99.90
24800;DHT22;12897;50.812;4.430;2023-05-28T10:27:37;21.00;99.90
24800;DHT22;12897;50.812;4.430;2023-05-28T10:30:05;21.10;99.90
24800;DHT22;12897;50.812;4.430;2023-05-28T10:32:42;21.20;99.90
24800;DHT22;12897;50.812;4.430;2023-05-28T10:35:10;21.20;99.90
24800;DHT22;12897;50.812;4.430;2023-05-28T10:37:39;21.30;99.90
24800;DHT22;12897;50.812;4.430;2023-05-28T10:40:08;21.30;99.90
24800;DHT22;12897;50.812;4.430;2023-05-28T10:42:39;21.30;99.90
24800;DHT22;12897;50.812;4.430;2023-05-28T10:45:12;21.30;99.90
24800;DHT22;12897;50.812;4.430;2023-05-28T10:47:40;21.40;99.90
24800;DHT22;12897;50.812;4.430;2023-05-28T10:50:12;21.60;99.90
24800;DHT22;12897;50.812;4.430;2023-05-28T10:52:40;21.80;99.90
24800;DHT22;12897;50.812;4.430;2023-05-28T10:55:10;21.90;99.90
24800;DHT22;12897;50.812;4.430;2023-05-28T10:57:45;22.00;99.90
24800;DHT22;12897;50.812;4.430;2023-05-28T11:00:24;22.10;99.90
24800;DHT22;12897;50.812;4.430;2023-05-28T11:02:44;22.30;99.90
24800;DHT22;12897;50.812;4.430;2023-05-28T11:05:14;22.40;99.90
24800;DHT22;12897;50.812;4.430;2023-05-28T11:07:43;22.30;99.90
24800;DHT22;12897;50.812;4.430;2023-05-28T11:10:14;22.00;99.90
24800;DHT22;12897;50.812;4.430;2023-05-28T11:12:41;22.00;99.90
24800;DHT22;12897;50.812;4.430;2023-05-28T11:15:11;21.90;99.90
24800;DHT22;12897;50.812;4.430;2023-05-28T11:17:40;22.00;99.90
24800;DHT22;12897;50.812;4.430;2023-05-28T11:20:21;22.20;99.90
24800;DHT22;12897;50.812;4.430;2023-05-28T11:22:52;22.30;99.90
24800;DHT22;12897;50.812;4.430;2023-05-28T11:25:20;22.20;99.90
24800;DHT22;12897;50.812;4.430;2023-05-28T11:27:54;22.30;99.90
24800;DHT22;12897;50.812;4.430;2023-05-28T11:30:24;22.40;99.90
24800;DHT22;12897;50.812;4.430;2023-05-28T11:32:53;22.50;99.90
24800;DHT22;12897;50.812;4.430;2023-05-28T11:35:22;22.60;99.90
24800;DHT22;12897;50.812;4.430;2023-05-28T11:38:03;22.70;99.90
24800;DHT22;12897;50.812;4.430;2023-05-28T11:40:35;22.60;99.90
24800;DHT22;12897;50.812;4.430;2023-05-28T11:43:02;22.70;99.90
24800;DHT22;12897;50.812;4.430;2023-05-28T11:45:39;22.80;99.90
24800;DHT22;12897;50.812;4.430;2023-05-28T11:48:13;22.50;99.90
24800;DHT22;12897;50.812;4.430;2023-05-28T11:50:43;22.60;99.90
24800;DHT22;12897;50.812;4.430;2023-05-28T11:53:10;22.70;99.90
24800;DHT22;12897;50.812;4.430;2023-05-28T11:55:39;22.70;99.90
24800;DHT22;12897;50.812;4.430;2023-05-28T11:58:06;22.80;99.90
24800;DHT22;12897;50.812;4.430;2023-05-28T12:00:35;22.70;99.90
24800;DHT22;12897;50.812;4.430;2023-05-28T12:03:04;22.80;99.90
24800;DHT22;12897;50.812;4.430;2023-05-28T12:05:38;22.70;99.90
24800;DHT22;12897;50.812;4.430;2023-05-28T12:08:06;22.80;99.90
24800;DHT22;12897;50.812;4.430;2023-05-28T12:10:34;22.90;99.90
24800;DHT22;12897;50.812;4.430;2023-05-28T12:13:02;22.70;99.90
24800;DHT22;12897;50.812;4.430;2023-05-28T12:15:35;22.90;99.90
24800;DHT22;12897;50.812;4.430;2023-05-28T12:18:03;23.10;99.90
24800;DHT22;12897;50.812;4.430;2023-05-28T12:20:33;23.10;99.90
24800;DHT22;12897;50.812;4.430;2023-05-28T12:23:07;23.00;99.60
24800;DHT22;12897;50.812;4.430;2023-05-28T12:28:18;22.90;99.90
24800;DHT22;12897;50.812;4.430;2023-05-28T12:30:49;23.10;99.70
24800;DHT22;12897;50.812;4.430;2023-05-28T12:33:19;23.20;99.60
24800;DHT22;12897;50.812;4.430;2023-05-28T12:35:46;23.10;99.10
24800;DHT22;12897;50.812;4.430;2023-05-28T12:38:14;23.30;99.40
24800;DHT22;12897;50.812;4.430;2023-05-28T12:40:43;23.40;98.40
24800;DHT22;12897;50.812;4.430;2023-05-28T12:43:12;23.50;97.80
24800;DHT22;12897;50.812;4.430;2023-05-28T12:45:41;23.40;95.90
24800;DHT22;12897;50.812;4.430;2023-05-28T12:48:10;23.20;96.30
24800;DHT22;12897;50.812;4.430;2023-05-28T12:50:37;23.20;97.30
24800;DHT22;12897;50.812;4.430;2023-05-28T12:53:05;23.30;97.40
24800;DHT22;12897;50.812;4.430;2023-05-28T12:55:33;23.20;96.10
24800;DHT22;12897;50.812;4.430;2023-05-28T12:58:01;23.40;96.40
24800;DHT22;12897;50.812;4.430;2023-05-28T13:00:28;23.60;95.10
24800;DHT22;12897;50.812;4.430;2023-05-28T13:02:56;23.70;95.10
24800;DHT22;12897;50.812;4.430;2023-05-28T13:05:24;23.60;94.60
24800;DHT22;12897;50.812;4.430;2023-05-28T13:07:52;23.30;95.60
24800;DHT22;12897;50.812;4.430;2023-05-28T13:10:20;23.50;95.40
24800;DHT22;12897;50.812;4.430;2023-05-28T13:12:47;23.60;95.10
24800;DHT22;12897;50.812;4.430;2023-05-28T13:15:16;23.70;95.40
24800;DHT22;12897;50.812;4.430;2023-05-28T13:17:44;23.50;96.10
24800;DHT22;12897;50.812;4.430;2023-05-28T13:20:12;23.70;96.60
24800;DHT22;12897;50.812;4.430;2023-05-28T13:22:41;23.80;96.20
24800;DHT22;12897;50.812;4.430;2023-05-28T13:25:09;23.70;95.30
24800;DHT22;12897;50.812;4.430;2023-05-28T13:27:37;23.70;95.70
24800;DHT22;12897;50.812;4.430;2023-05-28T13:30:06;23.90;94.90
24800;DHT22;12897;50.812;4.430;2023-05-28T13:32:34;23.90;94.60
24800;DHT22;12897;50.812;4.430;2023-05-28T13:35:02;23.90;93.90
24800;DHT22;12897;50.812;4.430;2023-05-28T13:37:33;23.90;94.60
24800;DHT22;12897;50.812;4.430;2023-05-28T13:40:01;23.90;94.30
24800;DHT22;12897;50.812;4.430;2023-05-28T13:42:30;24.00;93.90
24800;DHT22;12897;50.812;4.430;2023-05-28T13:44:59;23.90;93.20
24800;DHT22;12897;50.812;4.430;2023-05-28T13:47:27;24.00;91.90
24800;DHT22;12897;50.812;4.430;2023-05-28T13:49:55;24.10;91.60
24800;DHT22;12897;50.812;4.430;2023-05-28T13:52:23;24.10;92.20
24800;DHT22;12897;50.812;4.430;2023-05-28T13:54:51;23.90;93.10
24800;DHT22;12897;50.812;4.430;2023-05-28T13:57:18;24.10;93.20
24800;DHT22;12897;50.812;4.430;2023-05-28T13:59:48;24.00;92.70
24800;DHT22;12897;50.812;4.430;2023-05-28T14:02:17;24.10;93.20
24800;DHT22;12897;50.812;4.430;2023-05-28T14:04:44;24.30;93.60
24800;DHT22;12897;50.812;4.430;2023-05-28T14:07:12;24.30;92.90
24800;DHT22;12897;50.812;4.430;2023-05-28T14:09:40;23.90;92.00
24800;DHT22;12897;50.812;4.430;2023-05-28T14:12:07;23.80;92.50
24800;DHT22;12897;50.812;4.430;2023-05-28T14:14:35;23.80;92.20
24800;DHT22;12897;50.812;4.430;2023-05-28T14:17:06;24.00;92.20
24800;DHT22;12897;50.812;4.430;2023-05-28T14:19:33;24.10;91.10
24800;DHT22;12897;50.812;4.430;2023-05-28T14:22:01;24.20;90.90
24800;DHT22;12897;50.812;4.430;2023-05-28T14:24:28;24.20;90.50
24800;DHT22;12897;50.812;4.430;2023-05-28T14:26:56;24.30;90.00
24800;DHT22;12897;50.812;4.430;2023-05-28T14:29:24;24.30;90.00
24800;DHT22;12897;50.812;4.430;2023-05-28T14:31:51;24.00;89.70
24800;DHT22;12897;50.812;4.430;2023-05-28T14:34:19;23.90;89.60
24800;DHT22;12897;50.812;4.430;2023-05-28T14:36:46;24.20;87.50
24800;DHT22;12897;50.812;4.430;2023-05-28T14:39:14;24.10;84.30
24800;DHT22;12897;50.812;4.430;2023-05-28T14:41:41;24.30;83.20
24800;DHT22;12897;50.812;4.430;2023-05-28T14:44:09;24.10;82.10
24800;DHT22;12897;50.812;4.430;2023-05-28T14:46:36;24.10;82.60
24800;DHT22;12897;50.812;4.430;2023-05-28T14:49:04;24.00;81.90
24800;DHT22;12897;50.812;4.430;2023-05-28T14:51:31;23.90;83.00
24800;DHT22;12897;50.812;4.430;2023-05-28T14:53:59;24.00;82.60
24800;DHT22;12897;50.812;4.430;2023-05-28T14:56:27;24.10;80.50
24800;DHT22;12897;50.812;4.430;2023-05-28T14:58:54;24.10;82.90
24800;DHT22;12897;50.812;4.430;2023-05-28T15:01:22;24.30;84.30
24800;DHT22;12897;50.812;4.430;2023-05-28T15:03:49;24.10;84.90
24800;DHT22;12897;50.812;4.430;2023-05-28T15:06:17;24.10;83.20
24800;DHT22;12897;50.812;4.430;2023-05-28T15:08:45;24.20;83.90
24800;DHT22;12897;50.812;4.430;2023-05-28T15:11:14;24.30;85.00
24800;DHT22;12897;50.812;4.430;2023-05-28T15:13:42;24.30;84.90
24800;DHT22;12897;50.812;4.430;2023-05-28T15:16:10;24.20;87.10
24800;DHT22;12897;50.812;4.430;2023-05-28T15:18:39;24.10;86.50
24800;DHT22;12897;50.812;4.430;2023-05-28T15:21:06;24.00;87.10
24800;DHT22;12897;50.812;4.430;2023-05-28T15:23:34;24.00;87.70
24800;DHT22;12897;50.812;4.430;2023-05-28T15:26:02;24.00;87.10
24800;DHT22;12897;50.812;4.430;2023-05-28T15:28:30;24.00;87.00
24800;DHT22;12897;50.812;4.430;2023-05-28T15:30:57;23.70;85.80
24800;DHT22;12897;50.812;4.430;2023-05-28T15:33:25;23.60;86.10
24800;DHT22;12897;50.812;4.430;2023-05-28T15:35:53;23.80;86.90
24800;DHT22;12897;50.812;4.430;2023-05-28T15:38:21;23.90;85.30
24800;DHT22;12897;50.812;4.430;2023-05-28T15:40:49;23.80;85.30